createdAt,value
2022-07-31T00:02:09.010Z,20.51
2022-07-31T00:04:36.426Z,21.04
2022-07-31T00:07:03.916Z,19.88
2022-07-31T00:09:53.571Z,20.27
2022-07-31T00:12:18.744Z,19.71
2022-07-31T00:14:45.861Z,20.65
2022-07-31T00:17:12.989Z,19.90
2022-07-31T00:19:41.585Z,20.50
2022-07-31T00:22:10.028Z,19.56
2022-07-31T00:24:37.153Z,20.55
2022-07-31T00:27:04.910Z,20.10
2022-07-31T00:29:32.478Z,19.94
2022-07-31T00:31:59.619Z,20.15
2022-07-31T00:34:27.064Z,19.62
2022-07-31T00:36:54.240Z,19.84
2022-07-31T00:39:21.403Z,19.45
2022-07-31T00:41:49.578Z,19.61
2022-07-31T00:44:16.693Z,19.76
2022-07-31T00:46:45.665Z,19.68
2022-07-31T00:49:13.086Z,20.19
2022-07-31T00:51:40.280Z,20.30
2022-07-31T00:54:08.264Z,20.12
2022-07-31T00:56:35.669Z,19.93
2022-07-31T00:59:02.882Z,19.95
2022-07-31T01:01:30.932Z,19.76
2022-07-31T01:03:58.465Z,20.28
2022-07-31T01:06:25.587Z,19.71
2022-07-31T01:08:52.975Z,19.89
2022-07-31T01:11:25.389Z,20.29
2022-07-31T01:13:56.769Z,20.38
2022-07-31T01:16:24.778Z,20.24
2022-07-31T01:18:52.501Z,20.45
2022-07-31T01:21:21.477Z,20.03
2022-07-31T01:24:05.214Z,20.05
2022-07-31T01:26:49.803Z,19.89
2022-07-31T01:29:37.551Z,20.36
2022-07-31T01:32:06.340Z,20.22
2022-07-31T01:34:44.804Z,20.41
2022-07-31T01:37:14.317Z,20.95
2022-07-31T01:39:43.570Z,20.60
2022-07-31T01:42:10.789Z,20.64
2022-07-31T01:44:39.342Z,20.42
2022-07-31T01:47:06.870Z,19.26
2022-07-31T01:49:34.240Z,19.93
2022-07-31T01:52:04.403Z,19.67
2022-07-31T01:54:33.961Z,20.56
2022-07-31T01:57:01.504Z,20.45
2022-07-31T01:59:28.634Z,19.50
2022-07-31T02:02:03.459Z,19.27
2022-07-31T02:04:33.075Z,19.80
2022-07-31T02:07:00.359Z,20.22
2022-07-31T02:09:27.497Z,20.46
2022-07-31T02:11:55.133Z,20.38
2022-07-31T02:14:22.985Z,20.22
2022-07-31T02:16:50.377Z,19.77
2022-07-31T02:19:18.382Z,19.28
2022-07-31T02:21:45.541Z,19.97
2022-07-31T02:24:12.664Z,20.13
2022-07-31T02:26:40.178Z,19.76
2022-07-31T02:29:07.349Z,19.90
2022-07-31T02:31:48.332Z,20.00
2022-07-31T02:34:30.137Z,19.66
2022-07-31T02:36:58.086Z,20.29
2022-07-31T02:39:30.059Z,19.54
2022-07-31T02:42:01.451Z,19.13
2022-07-31T02:44:29.529Z,19.57
2022-07-31T02:46:58.038Z,19.40
2022-07-31T02:49:25.736Z,19.44
2022-07-31T02:51:52.983Z,19.31
2022-07-31T02:54:20.330Z,19.14
2022-07-31T02:56:47.831Z,18.99
2022-07-31T02:59:14.944Z,19.62
2022-07-31T03:01:43.734Z,19.29
2022-07-31T03:04:11.222Z,19.24
2022-07-31T03:06:38.457Z,18.67
2022-07-31T03:09:05.708Z,19.01
2022-07-31T03:11:33.588Z,19.66
2022-07-31T03:14:00.801Z,19.16
2022-07-31T03:16:28.232Z,19.49
2022-07-31T03:18:56.603Z,19.70
2022-07-31T03:21:23.724Z,18.99
2022-07-31T03:23:50.880Z,19.16
2022-07-31T03:26:18.370Z,19.02
2022-07-31T03:28:45.535Z,19.26
2022-07-31T03:31:12.859Z,19.00
2022-07-31T03:33:40.530Z,19.45
2022-07-31T03:36:09.489Z,18.86
2022-07-31T03:38:41.737Z,18.69
2022-07-31T03:41:11.960Z,19.20
2022-07-31T03:43:47.469Z,19.64
2022-07-31T03:46:16.235Z,19.81
2022-07-31T03:48:43.360Z,19.45
2022-07-31T03:51:10.956Z,19.44
2022-07-31T03:53:38.557Z,20.05
2022-07-31T03:56:06.454Z,19.87
2022-07-31T03:58:34.621Z,19.62
2022-07-31T04:01:07.257Z,19.41
2022-07-31T04:03:38.286Z,19.20
2022-07-31T04:06:07.844Z,19.52
2022-07-31T04:08:35.052Z,19.48
2022-07-31T04:11:02.479Z,19.33
2022-07-31T04:13:29.985Z,19.18
2022-07-31T04:15:57.289Z,19.54
2022-07-31T04:18:24.676Z,19.16
2022-07-31T04:20:51.856Z,19.67
2022-07-31T04:23:18.977Z,19.57
2022-07-31T04:25:50.687Z,18.81
2022-07-31T04:28:21.392Z,18.84
2022-07-31T04:30:48.575Z,19.14
2022-07-31T04:33:16.008Z,18.90
2022-07-31T04:35:43.304Z,19.15
2022-07-31T04:38:12.020Z,18.53
2022-07-31T04:40:39.606Z,19.18
2022-07-31T04:43:06.721Z,19.39
2022-07-31T04:45:33.830Z,19.29
2022-07-31T04:48:01.301Z,19.74
2022-07-31T04:50:30.049Z,18.87
2022-07-31T04:52:57.852Z,18.99
2022-07-31T04:55:25.382Z,19.00
2022-07-31T04:57:52.550Z,18.97
2022-07-31T05:00:20.215Z,18.70
2022-07-31T05:02:47.680Z,18.30
2022-07-31T05:05:14.825Z,18.92
2022-07-31T05:07:42.128Z,18.74
2022-07-31T05:10:10.055Z,18.90
2022-07-31T05:12:37.245Z,18.14
2022-07-31T05:15:05.588Z,18.76
2022-07-31T05:17:33.217Z,18.56
2022-07-31T05:20:00.865Z,18.24
2022-07-31T05:22:28.632Z,18.33
2022-07-31T05:24:56.700Z,18.16
2022-07-31T05:27:23.925Z,18.29
2022-07-31T05:29:51.107Z,17.74
2022-07-31T05:32:18.516Z,17.62
2022-07-31T05:34:46.197Z,17.46
2022-07-31T05:37:13.356Z,17.73
2022-07-31T05:39:40.923Z,17.25
2022-07-31T05:42:20.053Z,17.33
2022-07-31T05:44:47.476Z,17.30
2022-07-31T05:47:14.604Z,17.42
2022-07-31T05:49:41.775Z,17.73
2022-07-31T05:52:09.846Z,18.05
2022-07-31T05:54:37.046Z,18.01
2022-07-31T05:57:07.551Z,17.90
2022-07-31T05:59:35.461Z,17.52
2022-07-31T06:02:03.436Z,17.80
2022-07-31T06:04:32.586Z,17.91
2022-07-31T06:06:59.789Z,17.89
2022-07-31T06:09:27.132Z,18.65
2022-07-31T06:11:54.547Z,18.30
2022-07-31T06:14:21.712Z,18.45
2022-07-31T06:16:50.261Z,18.01
2022-07-31T06:19:18.708Z,18.11
2022-07-31T06:22:02.492Z,17.89
2022-07-31T06:24:32.120Z,18.33
2022-07-31T06:27:00.861Z,17.94
2022-07-31T06:29:41.720Z,17.59
2022-07-31T06:32:09.870Z,18.23
2022-07-31T06:34:37.208Z,18.44
2022-07-31T06:37:04.580Z,17.81
2022-07-31T06:39:56.078Z,17.62
2022-07-31T06:42:25.129Z,17.82
2022-07-31T06:45:11.057Z,18.01
2022-07-31T06:47:42.589Z,17.59
2022-07-31T06:50:10.466Z,18.13
2022-07-31T06:52:38.442Z,17.78
2022-07-31T06:55:06.446Z,18.21
2022-07-31T06:57:34.024Z,18.27
2022-07-31T07:00:05.523Z,17.89
2022-07-31T07:02:35.223Z,17.77
2022-07-31T07:05:06.235Z,18.17
2022-07-31T07:07:34.829Z,18.07
2022-07-31T07:10:02.138Z,18.10
2022-07-31T07:12:31.259Z,18.43
2022-07-31T07:14:58.684Z,18.23
2022-07-31T07:17:29.149Z,18.55
2022-07-31T07:19:57.110Z,18.84
2022-07-31T07:22:31.853Z,18.56
2022-07-31T07:25:01.182Z,18.55
2022-07-31T07:27:28.889Z,18.71
2022-07-31T07:29:56.110Z,18.89
2022-07-31T07:32:23.563Z,19.05
2022-07-31T07:35:00.095Z,19.36
2022-07-31T07:37:30.043Z,19.02
2022-07-31T07:40:03.692Z,19.30
2022-07-31T07:42:31.810Z,19.17
2022-07-31T07:44:59.262Z,19.24
2022-07-31T07:47:26.547Z,19.26
2022-07-31T07:50:15.712Z,20.17
2022-07-31T07:52:45.889Z,19.44
2022-07-31T07:55:14.261Z,19.33
2022-07-31T07:57:45.225Z,19.49
2022-07-31T08:00:14.228Z,20.03
2022-07-31T08:02:44.852Z,20.08
2022-07-31T08:05:30.434Z,20.45
2022-07-31T08:07:57.593Z,20.96
2022-07-31T08:10:28.422Z,20.43
2022-07-31T08:12:56.259Z,20.58
2022-07-31T08:15:29.856Z,20.48
2022-07-31T08:17:59.963Z,20.68
2022-07-31T08:20:27.446Z,20.91
2022-07-31T08:22:54.737Z,20.88
2022-07-31T08:25:22.341Z,20.65
2022-07-31T08:27:49.855Z,20.85
2022-07-31T08:30:17.096Z,21.21
2022-07-31T08:32:44.589Z,20.60
2022-07-31T08:35:12.110Z,20.49
2022-07-31T08:37:52.206Z,22.36
2022-07-31T08:40:28.977Z,22.29
2022-07-31T08:42:56.758Z,21.97
2022-07-31T08:45:28.608Z,21.52
2022-07-31T08:47:56.111Z,22.31
2022-07-31T08:50:24.060Z,21.62
2022-07-31T08:52:54.588Z,21.48
2022-07-31T08:55:55.688Z,21.25
2022-07-31T08:58:09.658Z,21.28
2022-07-31T09:00:37.531Z,20.78
2022-07-31T09:03:04.648Z,20.47
2022-07-31T09:05:42.077Z,20.95
2022-07-31T09:08:14.715Z,20.19
2022-07-31T09:10:47.760Z,19.83
2022-07-31T09:13:17.938Z,19.50
2022-07-31T09:15:46.456Z,19.59
2022-07-31T09:18:18.155Z,19.65
2022-07-31T09:20:56.281Z,19.63
2022-07-31T09:23:23.732Z,18.98
2022-07-31T09:26:01.966Z,18.90
2022-07-31T09:28:36.184Z,19.20
2022-07-31T09:31:04.231Z,19.02
2022-07-31T09:33:33.086Z,18.66
2022-07-31T09:36:01.677Z,18.55
2022-07-31T09:38:32.868Z,19.21
2022-07-31T09:41:56.158Z,19.16
2022-07-31T09:44:09.424Z,19.33
2022-07-31T09:46:43.561Z,19.07
2022-07-31T09:49:11.118Z,20.13
2022-07-31T09:51:42.060Z,19.36
2022-07-31T09:54:25.409Z,19.47
2022-07-31T09:56:53.250Z,20.05
2022-07-31T09:59:20.727Z,20.37
2022-07-31T10:01:51.015Z,20.36
2022-07-31T10:04:19.138Z,20.25
2022-07-31T10:06:51.138Z,20.05
2022-07-31T10:09:19.254Z,19.57
2022-07-31T10:11:48.640Z,20.11
2022-07-31T10:14:18.850Z,20.50
2022-07-31T10:16:46.314Z,20.10
2022-07-31T10:19:16.489Z,19.85
2022-07-31T10:21:44.854Z,20.23
2022-07-31T10:24:12.665Z,21.28
2022-07-31T10:26:59.630Z,21.29
2022-07-31T10:29:27.961Z,20.05
2022-07-31T10:32:00.754Z,21.16
2022-07-31T10:34:28.789Z,20.82
2022-07-31T10:37:02.047Z,20.52
2022-07-31T10:39:36.281Z,20.30
2022-07-31T10:42:06.535Z,20.82
2022-07-31T10:44:38.461Z,20.58
2022-07-31T10:47:13.734Z,20.12
2022-07-31T10:49:45.637Z,20.27
2022-07-31T10:52:13.226Z,20.54
2022-07-31T10:54:44.632Z,20.70
2022-07-31T10:57:21.774Z,20.48
2022-07-31T10:59:49.487Z,20.83
2022-07-31T11:02:28.690Z,20.56
2022-07-31T11:05:16.388Z,20.89
2022-07-31T11:07:45.607Z,20.82
2022-07-31T11:10:19.696Z,21.26
2022-07-31T11:13:05.741Z,21.04
2022-07-31T11:15:33.623Z,20.65
2022-07-31T11:18:21.999Z,20.61
2022-07-31T11:21:13.749Z,20.64
2022-07-31T11:23:55.972Z,20.89
2022-07-31T11:26:33.390Z,21.16
2022-07-31T11:29:59.263Z,21.36
2022-07-31T11:32:00.329Z,21.24
2022-07-31T11:34:27.751Z,21.35
2022-07-31T11:36:54.902Z,21.59
2022-07-31T11:39:32.804Z,21.25
2022-07-31T11:42:04.725Z,21.81
2022-07-31T11:44:35.194Z,22.10
2022-07-31T11:47:02.737Z,21.19
2022-07-31T11:49:44.162Z,21.54
2022-07-31T11:52:30.883Z,21.84
2022-07-31T11:55:09.428Z,20.75
2022-07-31T11:57:52.435Z,20.92
2022-07-31T12:00:26.520Z,21.14
2022-07-31T12:02:57.368Z,20.83
2022-07-31T12:05:37.723Z,20.44
2022-07-31T12:08:07.122Z,20.53
2022-07-31T12:10:34.442Z,20.64
2022-07-31T12:13:02.201Z,20.73
2022-07-31T12:15:29.584Z,20.44
2022-07-31T12:18:03.446Z,20.30
2022-07-31T12:20:35.800Z,20.84
2022-07-31T12:23:04.747Z,20.67
2022-07-31T12:25:41.977Z,20.64
2022-07-31T12:28:09.504Z,20.74
2022-07-31T12:30:36.968Z,20.73
2022-07-31T12:33:07.598Z,20.91
2022-07-31T12:35:56.541Z,20.68
2022-07-31T12:38:41.055Z,20.43
2022-07-31T12:41:13.472Z,20.12
2022-07-31T12:43:51.283Z,20.37
2022-07-31T12:46:20.598Z,20.30
2022-07-31T12:48:48.043Z,19.69
2022-07-31T12:51:16.881Z,19.50
2022-07-31T12:53:44.346Z,19.54
2022-07-31T12:56:12.158Z,19.76
2022-07-31T12:58:39.289Z,20.27
2022-07-31T13:01:06.498Z,19.85
2022-07-31T13:03:45.934Z,20.38
2022-07-31T13:06:13.795Z,20.25
2022-07-31T13:08:43.793Z,20.20
2022-07-31T13:11:11.077Z,20.86
2022-07-31T13:13:38.186Z,20.47
2022-07-31T13:16:05.564Z,20.59
2022-07-31T13:18:33.920Z,20.62
2022-07-31T13:21:01.312Z,20.19
2022-07-31T13:23:28.693Z,19.72
2022-07-31T13:25:56.824Z,19.47
2022-07-31T13:28:23.953Z,19.57
2022-07-31T13:30:55.267Z,19.30
2022-07-31T13:33:22.620Z,19.17
2022-07-31T13:35:49.764Z,19.49
2022-07-31T13:38:17.500Z,19.29
2022-07-31T13:41:03.334Z,19.35
2022-07-31T13:43:30.692Z,19.19
2022-07-31T13:45:58.086Z,19.33
2022-07-31T13:48:25.236Z,19.69
2022-07-31T13:50:52.866Z,19.92
2022-07-31T13:53:20.038Z,19.97
2022-07-31T13:55:50.073Z,19.61
2022-07-31T13:58:17.788Z,20.01
2022-07-31T14:00:44.949Z,20.07
2022-07-31T14:03:13.034Z,20.39
2022-07-31T14:05:44.264Z,20.03
2022-07-31T14:08:30.571Z,20.13
2022-07-31T14:10:58.800Z,20.80
2022-07-31T14:13:26.200Z,20.46
2022-07-31T14:15:53.313Z,20.38
2022-07-31T14:18:20.865Z,20.38
2022-07-31T14:20:48.435Z,20.99
2022-07-31T14:23:15.584Z,20.91
2022-07-31T14:25:43.020Z,20.60
2022-07-31T14:28:10.143Z,20.11
2022-07-31T14:30:37.379Z,20.50
2022-07-31T14:33:05.066Z,20.50
2022-07-31T14:35:33.609Z,20.09
2022-07-31T14:38:03.977Z,20.26
2022-07-31T14:40:31.949Z,19.90
2022-07-31T14:42:59.063Z,20.19
2022-07-31T14:45:26.220Z,19.90
2022-07-31T14:47:55.169Z,19.87
2022-07-31T14:50:23.231Z,19.87
2022-07-31T14:52:50.425Z,19.76
2022-07-31T14:55:19.328Z,20.04
2022-07-31T14:57:47.455Z,20.17
2022-07-31T15:00:15.520Z,20.14
2022-07-31T15:02:43.163Z,20.39
2022-07-31T15:06:49.374Z,20.09
2022-07-31T15:07:58.091Z,20.60
2022-07-31T15:10:25.232Z,21.13
2022-07-31T15:12:52.353Z,21.27
2022-07-31T15:15:19.740Z,21.65
2022-07-31T15:17:46.837Z,22.23
2022-07-31T15:20:13.966Z,22.17
2022-07-31T15:22:41.734Z,21.54
2022-07-31T15:25:10.225Z,22.03
2022-07-31T15:27:37.553Z,21.67
2022-07-31T15:30:07.750Z,21.51
2022-07-31T15:32:35.885Z,21.51
2022-07-31T15:35:03.485Z,22.04
2022-07-31T15:37:33.330Z,21.36
2022-07-31T15:40:02.272Z,21.77
2022-07-31T15:42:34.171Z,21.79
2022-07-31T15:45:01.310Z,21.63
2022-07-31T15:47:28.527Z,21.51
2022-07-31T15:49:55.925Z,21.14
2022-07-31T15:52:23.056Z,20.98
2022-07-31T15:54:52.258Z,21.03
2022-07-31T15:57:20.992Z,20.77
2022-07-31T15:59:48.618Z,21.08
2022-07-31T16:02:15.798Z,21.44
2022-07-31T16:04:51.850Z,20.46
2022-07-31T16:08:31.381Z,20.32
2022-07-31T16:10:15.564Z,20.19
2022-07-31T16:12:44.957Z,20.93
2022-07-31T16:15:12.753Z,20.36
2022-07-31T16:17:40.332Z,20.69
2022-07-31T16:20:09.621Z,21.22
2022-07-31T16:22:37.310Z,20.25
2022-07-31T16:25:04.575Z,20.76
2022-07-31T16:27:31.798Z,21.14
2022-07-31T16:30:01.379Z,20.69
2022-07-31T16:32:30.189Z,20.77
2022-07-31T16:35:00.970Z,21.25
2022-07-31T16:37:50.081Z,20.97
2022-07-31T16:40:29.981Z,20.81
2022-07-31T16:43:46.712Z,21.27
2022-07-31T16:45:49.928Z,21.81
2022-07-31T16:48:17.539Z,21.88
2022-07-31T16:50:44.659Z,21.40
2022-07-31T16:54:10.755Z,21.24
2022-07-31T16:56:02.076Z,21.10
2022-07-31T16:58:29.398Z,21.08
2022-07-31T17:00:56.583Z,21.47
2022-07-31T17:03:58.968Z,21.14
2022-07-31T17:06:11.881Z,21.64
2022-07-31T17:08:40.688Z,21.54
2022-07-31T17:11:07.822Z,21.47
2022-07-31T17:13:34.975Z,21.46
2022-07-31T17:16:05.185Z,21.31
2022-07-31T17:18:32.537Z,21.65
2022-07-31T17:20:59.793Z,21.93
2022-07-31T17:23:43.391Z,21.18
2022-07-31T17:26:21.219Z,20.77
2022-07-31T17:28:50.362Z,20.83
2022-07-31T17:31:17.919Z,21.26
2022-07-31T17:33:54.511Z,20.73
2022-07-31T17:36:28.536Z,20.11
2022-07-31T17:38:56.613Z,20.45
2022-07-31T17:41:25.271Z,20.69
2022-07-31T17:43:54.203Z,20.83
2022-07-31T17:46:34.284Z,21.26
2022-07-31T17:49:04.625Z,21.38
2022-07-31T17:51:31.823Z,20.70
2022-07-31T17:53:59.770Z,20.43
2022-07-31T17:56:27.354Z,20.42
2022-07-31T17:58:55.573Z,19.93
2022-07-31T18:01:28.433Z,20.58
2022-07-31T18:03:56.262Z,19.88
2022-07-31T18:06:23.387Z,20.40
2022-07-31T18:08:50.509Z,21.33
2022-07-31T18:11:17.961Z,21.18
2022-07-31T18:13:51.850Z,20.01
2022-07-31T18:16:23.769Z,20.59
2022-07-31T18:18:54.486Z,20.48
2022-07-31T18:21:21.845Z,20.64
2022-07-31T18:23:52.120Z,19.98
2022-07-31T18:26:19.285Z,20.28
2022-07-31T18:28:46.416Z,20.97
2022-07-31T18:31:32.103Z,19.99
2022-07-31T18:34:01.406Z,20.40
2022-07-31T18:36:28.788Z,20.41
2022-07-31T18:38:57.713Z,20.35
2022-07-31T18:41:25.553Z,20.11
2022-07-31T18:43:52.965Z,19.89
2022-07-31T18:46:20.530Z,20.01
2022-07-31T18:48:53.139Z,20.34
2022-07-31T18:51:25.261Z,20.30
2022-07-31T18:53:54.366Z,20.24
2022-07-31T18:56:22.842Z,19.83
2022-07-31T18:58:50.233Z,20.44
2022-07-31T19:01:17.599Z,19.37
2022-07-31T19:03:44.890Z,19.45
2022-07-31T19:06:12.284Z,18.99
2022-07-31T19:08:39.427Z,19.36
2022-07-31T19:11:06.572Z,19.07
2022-07-31T19:13:36.374Z,19.08
2022-07-31T19:16:03.641Z,19.16
2022-07-31T19:18:30.760Z,19.20
2022-07-31T19:21:23.047Z,19.25
2022-07-31T19:23:46.228Z,19.87
2022-07-31T19:26:13.640Z,19.96
2022-07-31T19:28:43.139Z,19.24
2022-07-31T19:31:10.432Z,19.60
2022-07-31T19:33:39.154Z,19.34
2022-07-31T19:36:06.461Z,19.28
2022-07-31T19:38:33.912Z,19.57
2022-07-31T19:41:01.326Z,19.85
2022-07-31T19:43:28.644Z,19.25
2022-07-31T19:46:10.574Z,19.49
2022-07-31T19:48:40.881Z,19.10
2022-07-31T19:51:08.321Z,19.58
2022-07-31T19:53:35.922Z,19.20
2022-07-31T19:56:05.655Z,18.92
2022-07-31T19:58:34.542Z,19.46
2022-07-31T20:01:01.820Z,19.12
2022-07-31T20:03:30.365Z,19.12
2022-07-31T20:05:58.250Z,19.00
2022-07-31T20:08:25.374Z,19.63
2022-07-31T20:10:53.157Z,19.32
2022-07-31T20:13:20.265Z,18.61
2022-07-31T20:15:52.637Z,19.08
2022-07-31T20:18:27.187Z,19.33
2022-07-31T20:20:59.669Z,18.84
2022-07-31T20:23:30.993Z,18.92
2022-07-31T20:25:58.504Z,19.40
2022-07-31T20:28:25.933Z,19.09
2022-07-31T20:30:53.334Z,18.84
2022-07-31T20:33:21.175Z,18.76
2022-07-31T20:35:50.135Z,18.97
2022-07-31T20:38:18.546Z,19.28
2022-07-31T20:40:52.912Z,18.88
2022-07-31T20:43:24.503Z,18.77
2022-07-31T20:45:51.768Z,18.53
2022-07-31T20:48:18.984Z,18.47
2022-07-31T20:50:48.109Z,18.67
2022-07-31T20:53:15.989Z,18.43
2022-07-31T20:55:46.957Z,19.03
2022-07-31T20:58:14.556Z,18.56
2022-07-31T21:00:41.848Z,18.91
2022-07-31T21:03:09.042Z,19.26
2022-07-31T21:05:36.431Z,19.16
2022-07-31T21:08:03.566Z,18.87
2022-07-31T21:10:30.668Z,19.02
2022-07-31T21:12:58.065Z,18.74
2022-07-31T21:15:41.832Z,18.95
2022-07-31T21:18:12.438Z,19.36
2022-07-31T21:20:50.016Z,19.31
2022-07-31T21:23:23.136Z,19.25
2022-07-31T21:25:53.779Z,19.52
2022-07-31T21:28:21.523Z,19.61
2022-07-31T21:30:48.693Z,19.27
2022-07-31T21:33:16.192Z,19.45
2022-07-31T21:35:43.740Z,19.69
2022-07-31T21:38:11.778Z,19.17
2022-07-31T21:40:39.847Z,18.56
2022-07-31T21:43:07.647Z,19.37
2022-07-31T21:45:47.767Z,19.49
2022-07-31T21:48:22.478Z,19.55
2022-07-31T21:50:49.729Z,19.81
2022-07-31T21:53:16.860Z,19.65
2022-07-31T21:55:44.300Z,19.61
2022-07-31T21:58:11.423Z,19.15
2022-07-31T22:00:38.564Z,19.80
2022-07-31T22:03:06.062Z,19.90
2022-07-31T22:05:51.906Z,20.37
2022-07-31T22:08:19.305Z,20.39
2022-07-31T22:10:46.526Z,20.66
2022-07-31T22:13:13.680Z,20.91
2022-07-31T22:15:51.482Z,20.93
2022-07-31T22:18:27.336Z,21.14
2022-07-31T22:20:54.763Z,20.99
2022-07-31T22:23:23.310Z,20.71
2022-07-31T22:25:50.669Z,21.13
2022-07-31T22:28:18.968Z,21.07
2022-07-31T22:30:46.287Z,21.07
2022-07-31T22:33:13.435Z,21.16
2022-07-31T22:35:40.982Z,20.94
2022-07-31T22:38:08.445Z,20.84
2022-07-31T22:40:35.634Z,20.99
2022-07-31T22:43:03.501Z,21.09
2022-07-31T22:45:30.768Z,21.09
2022-07-31T22:47:57.945Z,21.22
2022-07-31T22:50:25.370Z,20.82
2022-07-31T22:52:53.210Z,20.64
2022-07-31T22:55:20.343Z,20.62
2022-07-31T22:57:48.022Z,20.27
2022-07-31T23:00:15.793Z,19.91
2022-07-31T23:02:43.151Z,19.84
2022-07-31T23:05:10.892Z,19.65
2022-07-31T23:07:38.006Z,19.10
2022-07-31T23:10:06.057Z,19.24
2022-07-31T23:12:33.471Z,19.79
2022-07-31T23:15:00.578Z,20.05
2022-07-31T23:17:27.725Z,20.17
2022-07-31T23:19:55.245Z,20.13
2022-07-31T23:22:33.379Z,20.26
2022-07-31T23:25:04.698Z,19.90
2022-07-31T23:27:32.207Z,20.14
2022-07-31T23:29:59.678Z,20.25
2022-07-31T23:32:27.252Z,20.34
2022-07-31T23:34:54.477Z,20.22
2022-07-31T23:37:21.607Z,20.19
2022-07-31T23:39:49.007Z,20.42
2022-07-31T23:42:34.851Z,19.91
2022-07-31T23:45:02.317Z,19.77
2022-07-31T23:47:43.136Z,19.23
2022-07-31T23:50:12.797Z,19.69
2022-07-31T23:52:39.894Z,19.79
2022-07-31T23:55:07.055Z,19.77
2022-07-31T23:57:36.207Z,19.82
